sensor_id;sensor_type;location;lat;lon;timestamp;pressure;altitude;pressure_sealevel;temperature;humidity
7433;BME280;32233;49.500;7.764;2022-12-07T00:01:16;98643.63;;;1.84;100.00
7433;BME280;32233;49.500;7.764;2022-12-07T00:03:44;98643.38;;;1.67;100.00
7433;BME280;32233;49.500;7.764;2022-12-07T00:06:13;98631.41;;;1.74;100.00
7433;BME280;32233;49.500;7.764;2022-12-07T00:08:40;98633.88;;;1.66;100.00
7433;BME280;32233;49.500;7.764;2022-12-07T00:11:09;98624.72;;;1.72;100.00
7433;BME280;32233;49.500;7.764;2022-12-07T00:13:37;98629.91;;;1.72;100.00
7433;BME280;32233;49.500;7.764;2022-12-07T00:16:12;98635.56;;;1.58;100.00
7433;BME280;32233;49.500;7.764;2022-12-07T00:18:40;98629.97;;;1.33;100.00
7433;BME280;32233;49.500;7.764;2022-12-07T00:21:11;98629.56;;;1.47;100.00
7433;BME280;32233;49.500;7.764;2022-12-07T00:23:38;98631.34;;;1.47;100.00
7433;BME280;32233;49.500;7.764;2022-12-07T00:26:12;98619.94;;;1.48;100.00
7433;BME280;32233;49.500;7.764;2022-12-07T00:28:39;98625.03;;;1.20;100.00
7433;BME280;32233;49.500;7.764;2022-12-07T00:31:09;98623.22;;;1.50;100.00
7433;BME280;32233;49.500;7.764;2022-12-07T00:33:36;98627.06;;;1.46;100.00
7433;BME280;32233;49.500;7.764;2022-12-07T00:36:10;98621.59;;;1.30;100.00
7433;BME280;32233;49.500;7.764;2022-12-07T00:38:38;98620.06;;;1.46;100.00
7433;BME280;32233;49.500;7.764;2022-12-07T00:41:16;98627.47;;;1.41;100.00
7433;BME280;32233;49.500;7.764;2022-12-07T00:43:44;98614.13;;;1.73;100.00
7433;BME280;32233;49.500;7.764;2022-12-07T00:46:12;98624.66;;;1.82;100.00
7433;BME280;32233;49.500;7.764;2022-12-07T00:48:39;98611.91;;;1.88;100.00
7433;BME280;32233;49.500;7.764;2022-12-07T00:51:07;98614.41;;;1.80;100.00
7433;BME280;32233;49.500;7.764;2022-12-07T00:53:34;98611.38;;;1.75;100.00
7433;BME280;32233;49.500;7.764;2022-12-07T00:56:09;98601.72;;;1.48;100.00
7433;BME280;32233;49.500;7.764;2022-12-07T00:58:37;98607.00;;;1.66;100.00
7433;BME280;32233;49.500;7.764;2022-12-07T01:01:05;98605.94;;;1.59;100.00
7433;BME280;32233;49.500;7.764;2022-12-07T01:03:32;98606.50;;;1.53;100.00
7433;BME280;32233;49.500;7.764;2022-12-07T01:05:59;98601.19;;;1.35;100.00
7433;BME280;32233;49.500;7.764;2022-12-07T01:08:27;98601.72;;;1.29;100.00
7433;BME280;32233;49.500;7.764;2022-12-07T01:11:04;98606.97;;;1.19;100.00
7433;BME280;32233;49.500;7.764;2022-12-07T01:13:32;98592.69;;;1.04;100.00
7433;BME280;32233;49.500;7.764;2022-12-07T01:16:00;98592.41;;;0.87;100.00
7433;BME280;32233;49.500;7.764;2022-12-07T01:18:29;98590.22;;;0.83;100.00
7433;BME280;32233;49.500;7.764;2022-12-07T01:21:14;98593.38;;;0.67;100.00
7433;BME280;32233;49.500;7.764;2022-12-07T01:23:41;98597.03;;;0.64;100.00
7433;BME280;32233;49.500;7.764;2022-12-07T01:26:14;98603.22;;;0.63;100.00
7433;BME280;32233;49.500;7.764;2022-12-07T01:28:41;98600.09;;;0.79;100.00
7433;BME280;32233;49.500;7.764;2022-12-07T01:31:13;98611.56;;;0.77;100.00
7433;BME280;32233;49.500;7.764;2022-12-07T01:33:43;98612.00;;;0.82;100.00
7433;BME280;32233;49.500;7.764;2022-12-07T01:36:22;98606.66;;;0.83;100.00
7433;BME280;32233;49.500;7.764;2022-12-07T01:38:50;98616.66;;;0.78;100.00
7433;BME280;32233;49.500;7.764;2022-12-07T01:41:20;98609.78;;;0.77;100.00
7433;BME280;32233;49.500;7.764;2022-12-07T01:44:07;98618.84;;;0.83;100.00
7433;BME280;32233;49.500;7.764;2022-12-07T01:46:34;98615.69;;;0.79;100.00
7433;BME280;32233;49.500;7.764;2022-12-07T01:49:01;98620.78;;;0.90;100.00
7433;BME280;32233;49.500;7.764;2022-12-07T01:51:28;98613.13;;;0.98;100.00
7433;BME280;32233;49.500;7.764;2022-12-07T01:53:54;98616.41;;;1.20;100.00
7433;BME280;32233;49.500;7.764;2022-12-07T01:56:24;98617.22;;;1.20;100.00
7433;BME280;32233;49.500;7.764;2022-12-07T01:58:54;98609.25;;;1.22;100.00
7433;BME280;32233;49.500;7.764;2022-12-07T02:01:22;98611.63;;;1.15;100.00
7433;BME280;32233;49.500;7.764;2022-12-07T02:03:49;98608.72;;;1.09;100.00
7433;BME280;32233;49.500;7.764;2022-12-07T02:06:19;98612.44;;;1.35;100.00
7433;BME280;32233;49.500;7.764;2022-12-07T02:08:47;98593.50;;;1.33;100.00
7433;BME280;32233;49.500;7.764;2022-12-07T02:11:13;98594.72;;;1.48;100.00
7433;BME280;32233;49.500;7.764;2022-12-07T02:13:42;98597.22;;;1.31;100.00
7433;BME280;32233;49.500;7.764;2022-12-07T02:16:25;98588.13;;;1.44;100.00
7433;BME280;32233;49.500;7.764;2022-12-07T02:19:20;98590.66;;;1.27;100.00
7433;BME280;32233;49.500;7.764;2022-12-07T02:22:18;98590.50;;;1.28;100.00
7433;BME280;32233;49.500;7.764;2022-12-07T02:25:06;98591.03;;;1.22;100.00
7433;BME280;32233;49.500;7.764;2022-12-07T02:27:50;98592.16;;;1.19;100.00
7433;BME280;32233;49.500;7.764;2022-12-07T02:30:20;98584.31;;;1.29;100.00
7433;BME280;32233;49.500;7.764;2022-12-07T02:33:11;98584.88;;;1.23;100.00
7433;BME280;32233;49.500;7.764;2022-12-07T02:38:16;98585.97;;;1.20;100.00
7433;BME280;32233;49.500;7.764;2022-12-07T02:40:53;98587.06;;;1.28;100.00
7433;BME280;32233;49.500;7.764;2022-12-07T02:45:52;98575.16;;;1.35;100.00
7433;BME280;32233;49.500;7.764;2022-12-07T02:48:20;98567.97;;;1.56;100.00
7433;BME280;32233;49.500;7.764;2022-12-07T02:50:52;98575.19;;;1.62;100.00
7433;BME280;32233;49.500;7.764;2022-12-07T02:53:36;98572.03;;;1.68;100.00
7433;BME280;32233;49.500;7.764;2022-12-07T03:01:41;98571.03;;;1.13;100.00
7433;BME280;32233;49.500;7.764;2022-12-07T03:07:25;98569.81;;;0.97;100.00
7433;BME280;32233;49.500;7.764;2022-12-07T03:10:21;98563.91;;;1.24;100.00
7433;BME280;32233;49.500;7.764;2022-12-07T03:13:09;98566.75;;;1.41;100.00
7433;BME280;32233;49.500;7.764;2022-12-07T03:18:53;98564.34;;;1.01;100.00
7433;BME280;32233;49.500;7.764;2022-12-07T03:21:25;98561.75;;;1.10;100.00
7433;BME280;32233;49.500;7.764;2022-12-07T03:23:58;98557.75;;;1.16;100.00
7433;BME280;32233;49.500;7.764;2022-12-07T03:26:34;98548.13;;;1.26;100.00
7433;BME280;32233;49.500;7.764;2022-12-07T03:29:08;98536.94;;;1.06;100.00
7433;BME280;32233;49.500;7.764;2022-12-07T03:31:41;98547.22;;;1.08;100.00
7433;BME280;32233;49.500;7.764;2022-12-07T03:34:34;98546.66;;;1.23;100.00
7433;BME280;32233;49.500;7.764;2022-12-07T03:37:22;98548.97;;;1.17;100.00
7433;BME280;32233;49.500;7.764;2022-12-07T03:42:31;98565.41;;;1.27;100.00
7433;BME280;32233;49.500;7.764;2022-12-07T03:45:00;98566.47;;;1.44;100.00
7433;BME280;32233;49.500;7.764;2022-12-07T03:47:33;98560.28;;;1.55;100.00
7433;BME280;32233;49.500;7.764;2022-12-07T03:50:07;98548.09;;;1.55;100.00
7433;BME280;32233;49.500;7.764;2022-12-07T03:52:56;98553.31;;;1.45;100.00
7433;BME280;32233;49.500;7.764;2022-12-07T03:55:35;98565.09;;;1.49;100.00
7433;BME280;32233;49.500;7.764;2022-12-07T03:58:08;98556.03;;;1.54;100.00
7433;BME280;32233;49.500;7.764;2022-12-07T04:00:36;98554.25;;;1.54;100.00
7433;BME280;32233;49.500;7.764;2022-12-07T04:03:03;98556.84;;;1.54;100.00
7433;BME280;32233;49.500;7.764;2022-12-07T04:05:30;98561.00;;;1.47;100.00
7433;BME280;32233;49.500;7.764;2022-12-07T04:07:56;98557.28;;;1.59;100.00
7433;BME280;32233;49.500;7.764;2022-12-07T04:10:23;98554.88;;;1.76;100.00
7433;BME280;32233;49.500;7.764;2022-12-07T04:12:49;98552.97;;;1.68;100.00
7433;BME280;32233;49.500;7.764;2022-12-07T04:15:16;98549.03;;;1.64;100.00
7433;BME280;32233;49.500;7.764;2022-12-07T04:17:43;98547.66;;;1.60;100.00
7433;BME280;32233;49.500;7.764;2022-12-07T04:20:10;98545.44;;;1.65;100.00
7433;BME280;32233;49.500;7.764;2022-12-07T04:22:36;98540.78;;;1.68;100.00
7433;BME280;32233;49.500;7.764;2022-12-07T04:25:03;98540.22;;;1.65;100.00
7433;BME280;32233;49.500;7.764;2022-12-07T04:27:30;98545.16;;;1.68;100.00
7433;BME280;32233;49.500;7.764;2022-12-07T04:29:57;98541.06;;;1.65;100.00
7433;BME280;32233;49.500;7.764;2022-12-07T04:32:23;98542.72;;;1.57;100.00
7433;BME280;32233;49.500;7.764;2022-12-07T04:34:50;98532.16;;;1.58;100.00
7433;BME280;32233;49.500;7.764;2022-12-07T04:37:21;98541.75;;;1.58;100.00
7433;BME280;32233;49.500;7.764;2022-12-07T04:39:47;98540.41;;;1.54;100.00
7433;BME280;32233;49.500;7.764;2022-12-07T04:42:14;98538.84;;;1.70;100.00
7433;BME280;32233;49.500;7.764;2022-12-07T04:44:40;98547.47;;;1.71;100.00
7433;BME280;32233;49.500;7.764;2022-12-07T04:47:07;98540.56;;;1.52;100.00
7433;BME280;32233;49.500;7.764;2022-12-07T04:49:34;98544.19;;;1.69;100.00
7433;BME280;32233;49.500;7.764;2022-12-07T04:52:00;98552.00;;;1.69;100.00
7433;BME280;32233;49.500;7.764;2022-12-07T04:54:27;98551.19;;;1.68;100.00
7433;BME280;32233;49.500;7.764;2022-12-07T04:56:54;98541.69;;;1.40;100.00
7433;BME280;32233;49.500;7.764;2022-12-07T04:59:20;98544.84;;;1.34;100.00
7433;BME280;32233;49.500;7.764;2022-12-07T05:01:47;98542.34;;;1.42;100.00
7433;BME280;32233;49.500;7.764;2022-12-07T05:04:14;98537.09;;;1.61;100.00
7433;BME280;32233;49.500;7.764;2022-12-07T05:06:42;98538.72;;;1.72;100.00
7433;BME280;32233;49.500;7.764;2022-12-07T05:09:08;98542.34;;;1.52;100.00
7433;BME280;32233;49.500;7.764;2022-12-07T05:11:35;98546.63;;;1.43;100.00
7433;BME280;32233;49.500;7.764;2022-12-07T05:14:25;98546.75;;;1.41;100.00
7433;BME280;32233;49.500;7.764;2022-12-07T05:16:52;98554.44;;;1.33;100.00
7433;BME280;32233;49.500;7.764;2022-12-07T05:19:20;98553.22;;;1.18;100.00
7433;BME280;32233;49.500;7.764;2022-12-07T05:21:47;98550.47;;;1.39;100.00
7433;BME280;32233;49.500;7.764;2022-12-07T05:24:15;98546.09;;;1.67;100.00
7433;BME280;32233;49.500;7.764;2022-12-07T05:26:43;98550.75;;;1.36;100.00
7433;BME280;32233;49.500;7.764;2022-12-07T05:29:13;98547.84;;;1.29;100.00
7433;BME280;32233;49.500;7.764;2022-12-07T05:31:40;98547.31;;;1.26;100.00
7433;BME280;32233;49.500;7.764;2022-12-07T05:34:07;98550.09;;;1.14;100.00
7433;BME280;32233;49.500;7.764;2022-12-07T05:36:33;98549.28;;;1.61;100.00
7433;BME280;32233;49.500;7.764;2022-12-07T05:39:00;98543.69;;;1.56;100.00
7433;BME280;32233;49.500;7.764;2022-12-07T05:41:26;98541.97;;;1.27;100.00
7433;BME280;32233;49.500;7.764;2022-12-07T05:44:12;98541.91;;;1.56;100.00
7433;BME280;32233;49.500;7.764;2022-12-07T05:46:38;98537.84;;;1.81;100.00
7433;BME280;32233;49.500;7.764;2022-12-07T05:49:05;98536.13;;;1.62;100.00
7433;BME280;32233;49.500;7.764;2022-12-07T05:51:31;98535.06;;;1.55;100.00
7433;BME280;32233;49.500;7.764;2022-12-07T05:53:58;98533.34;;;1.73;100.00
7433;BME280;32233;49.500;7.764;2022-12-07T05:56:24;98541.63;;;1.59;100.00
7433;BME280;32233;49.500;7.764;2022-12-07T05:58:53;98542.56;;;1.58;100.00
7433;BME280;32233;49.500;7.764;2022-12-07T06:01:38;98544.28;;;1.30;100.00
7433;BME280;32233;49.500;7.764;2022-12-07T06:04:05;98544.84;;;1.34;100.00
7433;BME280;32233;49.500;7.764;2022-12-07T06:06:31;98539.66;;;1.71;100.00
7433;BME280;32233;49.500;7.764;2022-12-07T06:08:58;98544.25;;;1.49;100.00
7433;BME280;32233;49.500;7.764;2022-12-07T06:11:24;98543.97;;;1.53;100.00
7433;BME280;32233;49.500;7.764;2022-12-07T06:14:09;98548.47;;;1.60;100.00
7433;BME280;32233;49.500;7.764;2022-12-07T06:16:36;98543.38;;;1.59;100.00
7433;BME280;32233;49.500;7.764;2022-12-07T06:19:02;98547.13;;;1.56;100.00
7433;BME280;32233;49.500;7.764;2022-12-07T06:21:29;98538.72;;;1.62;100.00
7433;BME280;32233;49.500;7.764;2022-12-07T06:23:55;98544.47;;;1.66;100.00
7433;BME280;32233;49.500;7.764;2022-12-07T06:26:22;98545.13;;;1.78;100.00
7433;BME280;32233;49.500;7.764;2022-12-07T06:28:49;98548.53;;;1.78;100.00
7433;BME280;32233;49.500;7.764;2022-12-07T06:31:15;98543.63;;;1.75;100.00
7433;BME280;32233;49.500;7.764;2022-12-07T06:33:42;98538.94;;;1.79;100.00
7433;BME280;32233;49.500;7.764;2022-12-07T06:36:09;98542.56;;;1.68;100.00
7433;BME280;32233;49.500;7.764;2022-12-07T06:38:36;98548.16;;;1.73;100.00
7433;BME280;32233;49.500;7.764;2022-12-07T06:41:03;98539.91;;;1.78;100.00
7433;BME280;32233;49.500;7.764;2022-12-07T06:43:29;98549.19;;;1.90;100.00
7433;BME280;32233;49.500;7.764;2022-12-07T06:45:56;98542.56;;;1.58;100.00
7433;BME280;32233;49.500;7.764;2022-12-07T06:48:22;98543.38;;;1.68;100.00
7433;BME280;32233;49.500;7.764;2022-12-07T06:50:49;98549.19;;;1.90;100.00
7433;BME280;32233;49.500;7.764;2022-12-07T06:53:20;98548.81;;;1.85;100.00
7433;BME280;32233;49.500;7.764;2022-12-07T06:55:47;98553.00;;;1.95;100.00
7433;BME280;32233;49.500;7.764;2022-12-07T06:58:13;98555.59;;;1.95;100.00
7433;BME280;32233;49.500;7.764;2022-12-07T07:00:40;98553.84;;;1.96;100.00
7433;BME280;32233;49.500;7.764;2022-12-07T07:03:07;98554.69;;;1.87;100.00
7433;BME280;32233;49.500;7.764;2022-12-07T07:05:34;98551.41;;;1.85;100.00
7433;BME280;32233;49.500;7.764;2022-12-07T07:08:01;98553.00;;;1.95;100.00
7433;BME280;32233;49.500;7.764;2022-12-07T07:10:47;98551.38;;;1.94;100.00
7433;BME280;32233;49.500;7.764;2022-12-07T07:13:14;98553.75;;;1.88;100.00
7433;BME280;32233;49.500;7.764;2022-12-07T07:15:40;98552.59;;;2.00;100.00
7433;BME280;32233;49.500;7.764;2022-12-07T07:18:07;98555.75;;;1.94;100.00
7433;BME280;32233;49.500;7.764;2022-12-07T07:20:34;98556.47;;;1.86;100.00
7433;BME280;32233;49.500;7.764;2022-12-07T07:23:00;98558.19;;;2.05;100.00
7433;BME280;32233;49.500;7.764;2022-12-07T07:25:27;98556.16;;;1.99;100.00
7433;BME280;32233;49.500;7.764;2022-12-07T07:27:53;98560.41;;;2.00;100.00
7433;BME280;32233;49.500;7.764;2022-12-07T07:30:20;98554.84;;;2.13;100.00
7433;BME280;32233;49.500;7.764;2022-12-07T07:32:46;98563.59;;;1.94;100.00
7433;BME280;32233;49.500;7.764;2022-12-07T07:35:13;98558.53;;;1.92;100.00
7433;BME280;32233;49.500;7.764;2022-12-07T07:37:40;98562.28;;;1.70;100.00
7433;BME280;32233;49.500;7.764;2022-12-07T07:40:08;98566.00;;;2.05;100.00
7433;BME280;32233;49.500;7.764;2022-12-07T07:42:35;98572.69;;;2.08;100.00
7433;BME280;32233;49.500;7.764;2022-12-07T07:45:02;98578.88;;;2.16;100.00
7433;BME280;32233;49.500;7.764;2022-12-07T07:47:29;98571.31;;;2.13;100.00
7433;BME280;32233;49.500;7.764;2022-12-07T07:49:56;98565.19;;;2.05;100.00
7433;BME280;32233;49.500;7.764;2022-12-07T07:52:23;98562.31;;;1.98;100.00
7433;BME280;32233;49.500;7.764;2022-12-07T07:54:49;98567.38;;;1.99;100.00
7433;BME280;32233;49.500;7.764;2022-12-07T07:57:17;98571.22;;;2.05;100.00
7433;BME280;32233;49.500;7.764;2022-12-07T07:59:44;98573.66;;;2.16;100.00
7433;BME280;32233;49.500;7.764;2022-12-07T08:02:15;98575.09;;;1.91;100.00
7433;BME280;32233;49.500;7.764;2022-12-07T08:04:42;98574.22;;;2.10;100.00
7433;BME280;32233;49.500;7.764;2022-12-07T08:07:09;98571.53;;;2.30;100.00
7433;BME280;32233;49.500;7.764;2022-12-07T08:09:37;98580.34;;;2.46;100.00
7433;BME280;32233;49.500;7.764;2022-12-07T08:12:03;98585.91;;;2.34;100.00
7433;BME280;32233;49.500;7.764;2022-12-07T08:14:30;98584.59;;;2.20;100.00
7433;BME280;32233;49.500;7.764;2022-12-07T08:16:57;98583.94;;;2.45;100.00
7433;BME280;32233;49.500;7.764;2022-12-07T08:19:24;98590.22;;;2.25;100.00
7433;BME280;32233;49.500;7.764;2022-12-07T08:21:50;98589.41;;;2.25;100.00
7433;BME280;32233;49.500;7.764;2022-12-07T08:24:17;98585.19;;;2.14;100.00
7433;BME280;32233;49.500;7.764;2022-12-07T08:26:44;98592.06;;;2.60;100.00
7433;BME280;32233;49.500;7.764;2022-12-07T08:29:10;98596.34;;;2.61;100.00
7433;BME280;32233;49.500;7.764;2022-12-07T08:31:37;98596.06;;;2.82;100.00
7433;BME280;32233;49.500;7.764;2022-12-07T08:34:04;98599.13;;;2.78;100.00
7433;BME280;32233;49.500;7.764;2022-12-07T08:36:30;98591.56;;;2.75;100.00
7433;BME280;32233;49.500;7.764;2022-12-07T08:38:57;98595.66;;;2.77;100.00
7433;BME280;32233;49.500;7.764;2022-12-07T08:41:43;98594.91;;;2.85;100.00
7433;BME280;32233;49.500;7.764;2022-12-07T08:44:10;98597.31;;;2.78;100.00
7433;BME280;32233;49.500;7.764;2022-12-07T08:46:45;98592.47;;;2.83;100.00
7433;BME280;32233;49.500;7.764;2022-12-07T08:49:22;98592.50;;;2.56;100.00
7433;BME280;32233;49.500;7.764;2022-12-07T08:51:51;98593.66;;;2.71;100.00
7433;BME280;32233;49.500;7.764;2022-12-07T08:54:18;98587.81;;;2.77;100.00
7433;BME280;32233;49.500;7.764;2022-12-07T08:56:46;98582.41;;;2.88;100.00
7433;BME280;32233;49.500;7.764;2022-12-07T08:59:17;98584.09;;;2.97;100.00
7433;BME280;32233;49.500;7.764;2022-12-07T09:01:45;98581.66;;;2.96;100.00
7433;BME280;32233;49.500;7.764;2022-12-07T09:04:12;98579.78;;;2.88;100.00
7433;BME280;32233;49.500;7.764;2022-12-07T09:06:38;98580.84;;;2.95;100.00
7433;BME280;32233;49.500;7.764;2022-12-07T09:09:05;98577.25;;;2.96;100.00
7433;BME280;32233;49.500;7.764;2022-12-07T09:11:32;98589.13;;;2.91;100.00
7433;BME280;32233;49.500;7.764;2022-12-07T09:13:59;98581.94;;;3.11;100.00
7433;BME280;32233;49.500;7.764;2022-12-07T09:16:25;98584.94;;;3.16;100.00
7433;BME280;32233;49.500;7.764;2022-12-07T09:18:52;98585.28;;;3.21;100.00
7433;BME280;32233;49.500;7.764;2022-12-07T09:21:19;98587.97;;;3.29;100.00
7433;BME280;32233;49.500;7.764;2022-12-07T09:23:45;98588.13;;;3.28;100.00
7433;BME280;32233;49.500;7.764;2022-12-07T09:26:12;98592.38;;;3.55;99.16
7433;BME280;32233;49.500;7.764;2022-12-07T09:28:38;98585.22;;;3.31;100.00
7433;BME280;32233;49.500;7.764;2022-12-07T09:31:06;98589.75;;;3.29;100.00
7433;BME280;32233;49.500;7.764;2022-12-07T09:33:58;98597.31;;;3.32;100.00
7433;BME280;32233;49.500;7.764;2022-12-07T09:36:27;98595.09;;;3.19;100.00
7433;BME280;32233;49.500;7.764;2022-12-07T09:38:54;98585.34;;;3.47;100.00
7433;BME280;32233;49.500;7.764;2022-12-07T09:41:21;98578.44;;;3.46;100.00
7433;BME280;32233;49.500;7.764;2022-12-07T09:43:49;98588.81;;;3.12;100.00
7433;BME280;32233;49.500;7.764;2022-12-07T09:46:19;98581.63;;;3.14;100.00
7433;BME280;32233;49.500;7.764;2022-12-07T09:48:47;98585.38;;;3.11;100.00
7433;BME280;32233;49.500;7.764;2022-12-07T09:51:22;98572.28;;;3.29;100.00
7433;BME280;32233;49.500;7.764;2022-12-07T09:53:53;98578.56;;;3.36;100.00
7433;BME280;32233;49.500;7.764;2022-12-07T09:56:21;98569.69;;;3.29;100.00
7433;BME280;32233;49.500;7.764;2022-12-07T09:58:48;98572.97;;;3.57;100.00
7433;BME280;32233;49.500;7.764;2022-12-07T10:01:17;98570.63;;;3.72;100.00
7433;BME280;32233;49.500;7.764;2022-12-07T10:03:50;98566.25;;;3.55;100.00
7433;BME280;32233;49.500;7.764;2022-12-07T10:06:17;98564.91;;;3.51;100.00
7433;BME280;32233;49.500;7.764;2022-12-07T10:08:44;98565.09;;;3.49;99.58
7433;BME280;32233;49.500;7.764;2022-12-07T10:11:11;98562.75;;;3.64;99.90
7433;BME280;32233;49.500;7.764;2022-12-07T10:13:40;98556.84;;;3.62;100.00
7433;BME280;32233;49.500;7.764;2022-12-07T10:16:31;98558.16;;;3.66;99.69
7433;BME280;32233;49.500;7.764;2022-12-07T10:19:31;98567.38;;;3.78;99.40
7433;BME280;32233;49.500;7.764;2022-12-07T10:22:13;98564.13;;;3.76;98.81
7433;BME280;32233;49.500;7.764;2022-12-07T10:24:41;98556.75;;;3.71;98.26
7433;BME280;32233;49.500;7.764;2022-12-07T10:27:26;98551.88;;;3.77;97.64
7433;BME280;32233;49.500;7.764;2022-12-07T10:29:57;98549.47;;;3.57;100.00
7433;BME280;32233;49.500;7.764;2022-12-07T10:32:31;98548.81;;;3.89;98.06
7433;BME280;32233;49.500;7.764;2022-12-07T10:35:26;98550.34;;;4.00;97.37
7433;BME280;32233;49.500;7.764;2022-12-07T10:37:54;98540.56;;;4.10;97.86
7433;BME280;32233;49.500;7.764;2022-12-07T10:40:35;98541.16;;;4.38;95.68
7433;BME280;32233;49.500;7.764;2022-12-07T10:48:45;98533.22;;;4.97;90.61
7433;BME280;32233;49.500;7.764;2022-12-07T10:54:16;98525.31;;;4.48;93.19
7433;BME280;32233;49.500;7.764;2022-12-07T11:02:35;98523.09;;;4.94;90.80
7433;BME280;32233;49.500;7.764;2022-12-07T11:11:13;98508.19;;;5.11;86.48
7433;BME280;32233;49.500;7.764;2022-12-07T11:19:04;98498.19;;;5.22;87.16
7433;BME280;32233;49.500;7.764;2022-12-07T11:24:16;98492.28;;;5.12;86.32
7433;BME280;32233;49.500;7.764;2022-12-07T11:27:23;98485.97;;;5.54;84.92
7433;BME280;32233;49.500;7.764;2022-12-07T11:35:21;98475.41;;;5.79;81.82
7433;BME280;32233;49.500;7.764;2022-12-07T11:37:57;98475.44;;;5.70;82.07
7433;BME280;32233;49.500;7.764;2022-12-07T11:40:35;98479.81;;;5.86;80.45
7433;BME280;32233;49.500;7.764;2022-12-07T11:45:54;98471.97;;;5.78;81.78
7433;BME280;32233;49.500;7.764;2022-12-07T11:48:33;98471.88;;;5.63;83.02
7433;BME280;32233;49.500;7.764;2022-12-07T11:51:02;98462.47;;;5.77;81.83
7433;BME280;32233;49.500;7.764;2022-12-07T11:53:36;98464.81;;;5.72;82.09
7433;BME280;32233;49.500;7.764;2022-12-07T11:58:40;98466.84;;;5.45;82.69
7433;BME280;32233;49.500;7.764;2022-12-07T12:06:42;98460.66;;;5.22;85.40
7433;BME280;32233;49.500;7.764;2022-12-07T12:18:11;98449.66;;;5.43;81.71
7433;BME280;32233;49.500;7.764;2022-12-07T12:23:41;98437.47;;;4.70;85.66
7433;BME280;32233;49.500;7.764;2022-12-07T12:26:23;98444.97;;;4.48;85.70
7433;BME280;32233;49.500;7.764;2022-12-07T12:28:58;98442.53;;;4.47;86.75
7433;BME280;32233;49.500;7.764;2022-12-07T12:33:56;98444.97;;;4.65;85.78
7433;BME280;32233;49.500;7.764;2022-12-07T12:36:26;98435.66;;;4.79;83.86
7433;BME280;32233;49.500;7.764;2022-12-07T12:51:47;98418.78;;;7.07;98.62
7433;BME280;32233;49.500;7.764;2022-12-07T13:02:22;98419.72;;;5.21;82.27
7433;BME280;32233;49.500;7.764;2022-12-07T13:05:00;98419.66;;;4.65;83.34
7433;BME280;32233;49.500;7.764;2022-12-07T13:07:49;98414.41;;;4.57;84.14
7433;BME280;32233;49.500;7.764;2022-12-07T13:13:00;98406.38;;;4.51;83.99
7433;BME280;32233;49.500;7.764;2022-12-07T13:26:23;98400.63;;;4.22;85.09
7433;BME280;32233;49.500;7.764;2022-12-07T13:33:59;98398.53;;;4.42;86.69
7433;BME280;32233;49.500;7.764;2022-12-07T13:36:30;98392.63;;;4.32;84.73
7433;BME280;32233;49.500;7.764;2022-12-07T13:41:42;98392.47;;;4.42;85.38
7433;BME280;32233;49.500;7.764;2022-12-07T13:44:11;98395.59;;;4.37;85.85
7433;BME280;32233;49.500;7.764;2022-12-07T13:47:00;98388.38;;;4.31;85.65
7433;BME280;32233;49.500;7.764;2022-12-07T13:49:32;98381.50;;;4.30;87.30
7433;BME280;32233;49.500;7.764;2022-12-07T13:54:45;98392.63;;;4.32;85.16
7433;BME280;32233;49.500;7.764;2022-12-07T13:57:12;98389.03;;;4.41;87.23
7433;BME280;32233;49.500;7.764;2022-12-07T13:59:39;98385.44;;;4.26;85.63
7433;BME280;32233;49.500;7.764;2022-12-07T14:04:51;98383.00;;;4.41;84.65
7433;BME280;32233;49.500;7.764;2022-12-07T14:10:05;98384.44;;;4.27;86.14
7433;BME280;32233;49.500;7.764;2022-12-07T14:12:32;98381.69;;;4.37;84.40
7433;BME280;32233;49.500;7.764;2022-12-07T14:15:03;98387.72;;;4.37;86.73
7433;BME280;32233;49.500;7.764;2022-12-07T14:17:30;98380.50;;;4.15;87.77
7433;BME280;32233;49.500;7.764;2022-12-07T14:19:59;98386.25;;;4.18;85.70
7433;BME280;32233;49.500;7.764;2022-12-07T14:22:30;98379.53;;;4.16;86.91
7433;BME280;32233;49.500;7.764;2022-12-07T14:25:17;98376.75;;;4.01;86.14
7433;BME280;32233;49.500;7.764;2022-12-07T14:27:52;98379.97;;;3.87;86.73
7433;BME280;32233;49.500;7.764;2022-12-07T14:30:23;98383.41;;;3.87;87.32
7433;BME280;32233;49.500;7.764;2022-12-07T14:32:53;98382.06;;;3.83;88.42
7433;BME280;32233;49.500;7.764;2022-12-07T14:35:21;98378.69;;;3.99;88.96
7433;BME280;32233;49.500;7.764;2022-12-07T14:37:48;98381.31;;;3.99;89.00
7433;BME280;32233;49.500;7.764;2022-12-07T14:40:21;98376.22;;;3.81;90.57
7433;BME280;32233;49.500;7.764;2022-12-07T14:42:50;98377.03;;;3.90;89.48
7433;BME280;32233;49.500;7.764;2022-12-07T14:45:20;98370.69;;;3.92;89.75
7433;BME280;32233;49.500;7.764;2022-12-07T14:47:47;98373.75;;;3.80;90.92
7433;BME280;32233;49.500;7.764;2022-12-07T14:50:37;98376.22;;;3.81;89.67
7433;BME280;32233;49.500;7.764;2022-12-07T14:53:10;98376.88;;;4.00;88.36
7433;BME280;32233;49.500;7.764;2022-12-07T14:55:54;98372.47;;;3.84;89.35
7433;BME280;32233;49.500;7.764;2022-12-07T14:58:20;98380.44;;;3.82;90.91
7433;BME280;32233;49.500;7.764;2022-12-07T15:00:47;98376.72;;;3.93;89.89
7433;BME280;32233;49.500;7.764;2022-12-07T15:03:14;98380.47;;;3.98;89.31
7433;BME280;32233;49.500;7.764;2022-12-07T15:05:41;98377.50;;;3.77;90.27
7433;BME280;32233;49.500;7.764;2022-12-07T15:08:09;98375.38;;;3.81;89.54
7433;BME280;32233;49.500;7.764;2022-12-07T15:10:36;98375.06;;;3.76;89.19
7433;BME280;32233;49.500;7.764;2022-12-07T15:13:05;98371.25;;;3.62;90.88
7433;BME280;32233;49.500;7.764;2022-12-07T15:15:52;98376.97;;;3.65;91.69
7433;BME280;32233;49.500;7.764;2022-12-07T15:18:20;98384.31;;;3.62;89.53
7433;BME280;32233;49.500;7.764;2022-12-07T15:20:47;98378.78;;;3.65;90.54
7433;BME280;32233;49.500;7.764;2022-12-07T15:23:14;98365.91;;;3.71;89.60
7433;BME280;32233;49.500;7.764;2022-12-07T15:25:42;98367.78;;;3.53;91.65
7433;BME280;32233;49.500;7.764;2022-12-07T15:28:09;98370.41;;;3.53;91.61
7433;BME280;32233;49.500;7.764;2022-12-07T15:30:40;98369.25;;;3.47;91.76
7433;BME280;32233;49.500;7.764;2022-12-07T15:33:09;98369.19;;;3.31;93.60
7433;BME280;32233;49.500;7.764;2022-12-07T15:35:43;98370.34;;;3.37;91.50
7433;BME280;32233;49.500;7.764;2022-12-07T15:38:10;98380.28;;;3.33;92.58
7433;BME280;32233;49.500;7.764;2022-12-07T15:40:37;98370.88;;;3.48;91.61
7433;BME280;32233;49.500;7.764;2022-12-07T15:43:04;98367.94;;;3.43;90.65